sensor_id;sensor_type;location;lat;lon;timestamp;pressure;altitude;pressure_sealevel;temperature;humidity
49645;BME280;36494;50.730;-1.932;2023-02-15T00:00:43;102036.61;;;7.27;100.00
49645;BME280;36494;50.730;-1.932;2023-02-15T00:03:09;102037.39;;;7.26;100.00
49645;BME280;36494;50.730;-1.932;2023-02-15T00:05:34;102036.25;;;7.25;100.00
49645;BME280;36494;50.730;-1.932;2023-02-15T00:07:59;102036.29;;;7.25;100.00
49645;BME280;36494;50.730;-1.932;2023-02-15T00:10:24;102034.69;;;7.27;100.00
49645;BME280;36494;50.730;-1.932;2023-02-15T00:12:50;102039.24;;;7.25;100.00
49645;BME280;36494;50.730;-1.932;2023-02-15T00:15:15;102040.97;;;7.27;100.00
49645;BME280;36494;50.730;-1.932;2023-02-15T00:17:40;102038.73;;;7.29;100.00
49645;BME280;36494;50.730;-1.932;2023-02-15T00:20:06;102038.54;;;7.30;100.00
49645;BME280;36494;50.730;-1.932;2023-02-15T00:22:32;102033.62;;;7.32;100.00
49645;BME280;36494;50.730;-1.932;2023-02-15T00:24:57;102033.84;;;7.34;100.00
49645;BME280;36494;50.730;-1.932;2023-02-15T00:27:22;102031.74;;;7.37;100.00
49645;BME280;36494;50.730;-1.932;2023-02-15T00:29:47;102025.94;;;7.38;100.00
49645;BME280;36494;50.730;-1.932;2023-02-15T00:32:13;102023.33;;;7.38;100.00
49645;BME280;36494;50.730;-1.932;2023-02-15T00:34:38;102017.83;;;7.39;100.00
49645;BME280;36494;50.730;-1.932;2023-02-15T00:37:04;102010.87;;;7.40;100.00
49645;BME280;36494;50.730;-1.932;2023-02-15T00:39:29;102006.62;;;7.40;100.00
49645;BME280;36494;50.730;-1.932;2023-02-15T00:41:54;102004.44;;;7.38;100.00
49645;BME280;36494;50.730;-1.932;2023-02-15T00:44:20;102007.07;;;7.41;100.00
49645;BME280;36494;50.730;-1.932;2023-02-15T00:46:46;102006.72;;;7.42;100.00
49645;BME280;36494;50.730;-1.932;2023-02-15T00:49:11;102007.40;;;7.42;100.00
49645;BME280;36494;50.730;-1.932;2023-02-15T00:51:37;102003.11;;;7.40;100.00
49645;BME280;36494;50.730;-1.932;2023-02-15T00:54:02;102002.62;;;7.40;100.00
49645;BME280;36494;50.730;-1.932;2023-02-15T00:56:28;102000.05;;;7.39;100.00
49645;BME280;36494;50.730;-1.932;2023-02-15T00:58:54;101996.63;;;7.39;100.00
49645;BME280;36494;50.730;-1.932;2023-02-15T01:01:20;101991.63;;;7.35;100.00
49645;BME280;36494;50.730;-1.932;2023-02-15T01:03:46;101991.12;;;7.36;100.00
49645;BME280;36494;50.730;-1.932;2023-02-15T01:06:11;101986.72;;;7.34;100.00
49645;BME280;36494;50.730;-1.932;2023-02-15T01:08:37;101982.81;;;7.33;100.00
49645;BME280;36494;50.730;-1.932;2023-02-15T01:11:04;101979.81;;;7.29;100.00
49645;BME280;36494;50.730;-1.932;2023-02-15T01:13:27;101983.50;;;7.31;100.00
49645;BME280;36494;50.730;-1.932;2023-02-15T01:15:53;101984.28;;;7.32;100.00
49645;BME280;36494;50.730;-1.932;2023-02-15T01:18:18;101985.50;;;7.30;100.00
49645;BME280;36494;50.730;-1.932;2023-02-15T01:20:43;101986.20;;;7.31;100.00
49645;BME280;36494;50.730;-1.932;2023-02-15T01:23:08;101983.31;;;7.27;100.00
49645;BME280;36494;50.730;-1.932;2023-02-15T01:25:35;101983.23;;;7.24;100.00
49645;BME280;36494;50.730;-1.932;2023-02-15T01:27:59;101984.02;;;7.23;100.00
49645;BME280;36494;50.730;-1.932;2023-02-15T01:30:24;101977.31;;;7.22;100.00
49645;BME280;36494;50.730;-1.932;2023-02-15T01:32:49;101978.17;;;7.20;100.00
49645;BME280;36494;50.730;-1.932;2023-02-15T01:35:15;101975.51;;;7.19;100.00
49645;BME280;36494;50.730;-1.932;2023-02-15T01:37:41;101967.99;;;7.18;100.00
49645;BME280;36494;50.730;-1.932;2023-02-15T01:40:11;101962.82;;;7.16;100.00
49645;BME280;36494;50.730;-1.932;2023-02-15T01:42:32;101957.46;;;7.12;100.00
49645;BME280;36494;50.730;-1.932;2023-02-15T01:44:59;101952.56;;;7.12;100.00
49645;BME280;36494;50.730;-1.932;2023-02-15T01:47:27;101950.26;;;7.09;100.00
49645;BME280;36494;50.730;-1.932;2023-02-15T01:49:54;101944.63;;;7.07;100.00
49645;BME280;36494;50.730;-1.932;2023-02-15T01:52:16;101941.80;;;7.04;100.00
49645;BME280;36494;50.730;-1.932;2023-02-15T01:54:41;101940.03;;;7.01;100.00
49645;BME280;36494;50.730;-1.932;2023-02-15T01:57:09;101936.80;;;7.00;100.00
49645;BME280;36494;50.730;-1.932;2023-02-15T01:59:31;101937.10;;;6.98;100.00
49645;BME280;36494;50.730;-1.932;2023-02-15T02:01:59;101935.05;;;6.97;100.00
49645;BME280;36494;50.730;-1.932;2023-02-15T02:04:25;101931.47;;;6.92;100.00
49645;BME280;36494;50.730;-1.932;2023-02-15T02:06:48;101934.36;;;6.89;100.00
49645;BME280;36494;50.730;-1.932;2023-02-15T02:09:13;101931.87;;;6.84;100.00
49645;BME280;36494;50.730;-1.932;2023-02-15T02:11:39;101933.83;;;6.81;100.00
49645;BME280;36494;50.730;-1.932;2023-02-15T02:14:04;101930.59;;;6.80;100.00
49645;BME280;36494;50.730;-1.932;2023-02-15T02:16:36;101929.10;;;6.77;100.00
49645;BME280;36494;50.730;-1.932;2023-02-15T02:19:07;101932.19;;;6.75;100.00
49645;BME280;36494;50.730;-1.932;2023-02-15T02:21:39;101929.77;;;6.72;100.00
49645;BME280;36494;50.730;-1.932;2023-02-15T02:23:57;101927.11;;;6.66;100.00
49645;BME280;36494;50.730;-1.932;2023-02-15T02:26:32;101926.00;;;6.63;100.00
49645;BME280;36494;50.730;-1.932;2023-02-15T02:28:49;101926.80;;;6.58;100.00
49645;BME280;36494;50.730;-1.932;2023-02-15T02:31:19;101917.07;;;6.55;100.00
49645;BME280;36494;50.730;-1.932;2023-02-15T02:33:39;101911.80;;;6.52;100.00
49645;BME280;36494;50.730;-1.932;2023-02-15T02:35:57;101907.04;;;6.47;100.00
49645;BME280;36494;50.730;-1.932;2023-02-15T02:38:21;101903.25;;;6.45;100.00
49645;BME280;36494;50.730;-1.932;2023-02-15T02:40:49;101898.08;;;6.43;100.00
49645;BME280;36494;50.730;-1.932;2023-02-15T02:43:15;101892.93;;;6.42;100.00
49645;BME280;36494;50.730;-1.932;2023-02-15T02:45:39;101888.75;;;6.38;100.00
49645;BME280;36494;50.730;-1.932;2023-02-15T02:48:02;101884.30;;;6.37;100.00
49645;BME280;36494;50.730;-1.932;2023-02-15T02:50:26;101881.88;;;6.32;100.00
49645;BME280;36494;50.730;-1.932;2023-02-15T02:52:50;101881.37;;;6.30;100.00
49645;BME280;36494;50.730;-1.932;2023-02-15T02:55:17;101877.26;;;6.29;100.00
49645;BME280;36494;50.730;-1.932;2023-02-15T02:57:46;101878.83;;;6.27;100.00
49645;BME280;36494;50.730;-1.932;2023-02-15T03:00:11;101876.94;;;6.24;100.00
49645;BME280;36494;50.730;-1.932;2023-02-15T03:02:35;101877.79;;;6.21;100.00
49645;BME280;36494;50.730;-1.932;2023-02-15T03:05:00;101873.61;;;6.21;100.00
49645;BME280;36494;50.730;-1.932;2023-02-15T03:07:22;101867.25;;;6.20;100.00
49645;BME280;36494;50.730;-1.932;2023-02-15T03:09:50;101866.66;;;6.19;100.00
49645;BME280;36494;50.730;-1.932;2023-02-15T03:12:14;101862.95;;;6.19;100.00
49645;BME280;36494;50.730;-1.932;2023-02-15T03:14:39;101860.39;;;6.19;100.00
49645;BME280;36494;50.730;-1.932;2023-02-15T03:17:04;101858.03;;;6.21;100.00
49645;BME280;36494;50.730;-1.932;2023-02-15T03:19:31;101854.42;;;6.20;100.00
49645;BME280;36494;50.730;-1.932;2023-02-15T03:21:57;101849.98;;;6.18;100.00
49645;BME280;36494;50.730;-1.932;2023-02-15T03:24:22;101842.37;;;6.15;100.00
49645;BME280;36494;50.730;-1.932;2023-02-15T03:26:47;101837.83;;;6.14;100.00
49645;BME280;36494;50.730;-1.932;2023-02-15T03:29:11;101835.54;;;6.12;100.00
49645;BME280;36494;50.730;-1.932;2023-02-15T03:31:38;101831.39;;;6.12;100.00
49645;BME280;36494;50.730;-1.932;2023-02-15T03:34:04;101829.61;;;6.12;100.00
49645;BME280;36494;50.730;-1.932;2023-02-15T03:36:31;101828.11;;;6.10;100.00
49645;BME280;36494;50.730;-1.932;2023-02-15T03:38:59;101826.62;;;6.11;100.00
49645;BME280;36494;50.730;-1.932;2023-02-15T03:41:18;101827.94;;;6.24;100.00
49645;BME280;36494;50.730;-1.932;2023-02-15T03:43:48;101826.16;;;6.33;100.00
49645;BME280;36494;50.730;-1.932;2023-02-15T03:46:12;101827.10;;;6.34;100.00
49645;BME280;36494;50.730;-1.932;2023-02-15T03:48:39;101823.99;;;6.34;100.00
49645;BME280;36494;50.730;-1.932;2023-02-15T03:51:02;101821.60;;;6.38;100.00
49645;BME280;36494;50.730;-1.932;2023-02-15T03:53:25;101819.55;;;6.42;100.00
49645;BME280;36494;50.730;-1.932;2023-02-15T03:55:53;101816.59;;;6.44;100.00
49645;BME280;36494;50.730;-1.932;2023-02-15T03:58:15;101812.09;;;6.47;100.00
49645;BME280;36494;50.730;-1.932;2023-02-15T04:00:48;101812.21;;;6.50;100.00
49645;BME280;36494;50.730;-1.932;2023-02-15T04:03:12;101814.96;;;6.51;100.00
49645;BME280;36494;50.730;-1.932;2023-02-15T04:05:31;101813.79;;;6.52;100.00
49645;BME280;36494;50.730;-1.932;2023-02-15T04:07:56;101812.99;;;6.50;100.00
49645;BME280;36494;50.730;-1.932;2023-02-15T04:10:22;101813.15;;;6.50;100.00
49645;BME280;36494;50.730;-1.932;2023-02-15T04:12:47;101807.04;;;6.57;100.00
49645;BME280;36494;50.730;-1.932;2023-02-15T04:15:12;101796.36;;;6.59;100.00
49645;BME280;36494;50.730;-1.932;2023-02-15T04:17:38;101787.89;;;6.60;100.00
49645;BME280;36494;50.730;-1.932;2023-02-15T04:20:04;101790.25;;;6.59;100.00
49645;BME280;36494;50.730;-1.932;2023-02-15T04:22:28;101792.35;;;6.60;100.00
49645;BME280;36494;50.730;-1.932;2023-02-15T04:24:54;101793.66;;;6.59;100.00
49645;BME280;36494;50.730;-1.932;2023-02-15T04:27:20;101800.32;;;6.59;100.00
49645;BME280;36494;50.730;-1.932;2023-02-15T04:29:45;101796.23;;;6.60;100.00
49645;BME280;36494;50.730;-1.932;2023-02-15T04:32:11;101796.35;;;6.65;100.00
49645;BME280;36494;50.730;-1.932;2023-02-15T04:34:36;101796.24;;;6.68;100.00
49645;BME280;36494;50.730;-1.932;2023-02-15T04:37:01;101796.90;;;6.69;100.00
49645;BME280;36494;50.730;-1.932;2023-02-15T04:39:27;101798.28;;;6.70;100.00
49645;BME280;36494;50.730;-1.932;2023-02-15T04:41:53;101800.95;;;6.72;100.00
49645;BME280;36494;50.730;-1.932;2023-02-15T04:44:18;101801.70;;;6.74;100.00
49645;BME280;36494;50.730;-1.932;2023-02-15T04:46:44;101805.29;;;6.77;100.00
49645;BME280;36494;50.730;-1.932;2023-02-15T04:49:10;101805.90;;;6.76;100.00
49645;BME280;36494;50.730;-1.932;2023-02-15T04:51:35;101808.04;;;6.76;100.00
49645;BME280;36494;50.730;-1.932;2023-02-15T04:54:01;101802.03;;;6.79;100.00
49645;BME280;36494;50.730;-1.932;2023-02-15T04:56:26;101800.29;;;6.82;100.00
49645;BME280;36494;50.730;-1.932;2023-02-15T04:58:52;101793.88;;;6.84;100.00
49645;BME280;36494;50.730;-1.932;2023-02-15T05:01:19;101791.90;;;6.83;100.00
49645;BME280;36494;50.730;-1.932;2023-02-15T05:03:44;101789.54;;;6.84;100.00
49645;BME280;36494;50.730;-1.932;2023-02-15T05:06:09;101788.68;;;6.81;100.00
49645;BME280;36494;50.730;-1.932;2023-02-15T05:08:34;101790.57;;;6.79;100.00
49645;BME280;36494;50.730;-1.932;2023-02-15T05:11:00;101790.46;;;6.83;100.00
49645;BME280;36494;50.730;-1.932;2023-02-15T05:13:25;101792.79;;;6.81;100.00
49645;BME280;36494;50.730;-1.932;2023-02-15T05:15:51;101790.26;;;6.83;100.00
49645;BME280;36494;50.730;-1.932;2023-02-15T05:18:16;101789.52;;;6.81;100.00
49645;BME280;36494;50.730;-1.932;2023-02-15T05:20:41;101787.17;;;6.81;100.00
49645;BME280;36494;50.730;-1.932;2023-02-15T05:23:07;101789.30;;;6.81;100.00
49645;BME280;36494;50.730;-1.932;2023-02-15T05:25:32;101789.45;;;6.80;100.00
49645;BME280;36494;50.730;-1.932;2023-02-15T05:27:57;101789.94;;;6.79;100.00
49645;BME280;36494;50.730;-1.932;2023-02-15T05:30:23;101785.72;;;6.81;100.00
49645;BME280;36494;50.730;-1.932;2023-02-15T05:32:48;101787.69;;;6.83;100.00
49645;BME280;36494;50.730;-1.932;2023-02-15T05:35:15;101791.12;;;6.86;100.00
49645;BME280;36494;50.730;-1.932;2023-02-15T05:37:39;101795.62;;;6.88;100.00
49645;BME280;36494;50.730;-1.932;2023-02-15T05:40:05;101791.85;;;6.87;100.00
49645;BME280;36494;50.730;-1.932;2023-02-15T05:42:29;101791.56;;;6.88;100.00
49645;BME280;36494;50.730;-1.932;2023-02-15T05:44:54;101789.77;;;6.87;100.00
49645;BME280;36494;50.730;-1.932;2023-02-15T05:47:20;101793.31;;;6.88;100.00
49645;BME280;36494;50.730;-1.932;2023-02-15T05:49:46;101798.42;;;6.90;100.00
49645;BME280;36494;50.730;-1.932;2023-02-15T05:52:11;101796.13;;;6.90;100.00
49645;BME280;36494;50.730;-1.932;2023-02-15T05:54:37;101797.13;;;6.86;100.00
49645;BME280;36494;50.730;-1.932;2023-02-15T05:57:03;101799.08;;;6.81;100.00
49645;BME280;36494;50.730;-1.932;2023-02-15T05:59:28;101798.14;;;6.81;100.00
49645;BME280;36494;50.730;-1.932;2023-02-15T06:01:54;101795.55;;;6.78;100.00
49645;BME280;36494;50.730;-1.932;2023-02-15T06:04:19;101796.99;;;6.74;100.00
49645;BME280;36494;50.730;-1.932;2023-02-15T06:06:44;101800.45;;;6.69;100.00
49645;BME280;36494;50.730;-1.932;2023-02-15T06:09:10;101800.10;;;6.64;100.00
49645;BME280;36494;50.730;-1.932;2023-02-15T06:11:35;101802.45;;;6.60;100.00
49645;BME280;36494;50.730;-1.932;2023-02-15T06:14:00;101805.30;;;6.56;100.00
49645;BME280;36494;50.730;-1.932;2023-02-15T06:16:26;101806.90;;;6.50;100.00
49645;BME280;36494;50.730;-1.932;2023-02-15T06:18:52;101805.31;;;6.48;100.00
49645;BME280;36494;50.730;-1.932;2023-02-15T06:21:18;101803.85;;;6.45;100.00
49645;BME280;36494;50.730;-1.932;2023-02-15T06:23:43;101806.98;;;6.55;100.00
49645;BME280;36494;50.730;-1.932;2023-02-15T06:26:08;101804.05;;;6.60;100.00
49645;BME280;36494;50.730;-1.932;2023-02-15T06:28:34;101803.57;;;6.59;100.00
49645;BME280;36494;50.730;-1.932;2023-02-15T06:30:59;101809.46;;;6.62;100.00
49645;BME280;36494;50.730;-1.932;2023-02-15T06:33:25;101809.21;;;6.61;100.00
49645;BME280;36494;50.730;-1.932;2023-02-15T06:35:51;101807.17;;;6.56;100.00
49645;BME280;36494;50.730;-1.932;2023-02-15T06:38:16;101809.74;;;6.56;100.00
49645;BME280;36494;50.730;-1.932;2023-02-15T06:40:41;101809.46;;;6.54;100.00
49645;BME280;36494;50.730;-1.932;2023-02-15T06:43:07;101811.52;;;6.50;100.00
49645;BME280;36494;50.730;-1.932;2023-02-15T06:45:33;101813.93;;;6.46;100.00
49645;BME280;36494;50.730;-1.932;2023-02-15T06:47:58;101814.92;;;6.45;100.00
49645;BME280;36494;50.730;-1.932;2023-02-15T06:50:23;101813.45;;;6.43;100.00
49645;BME280;36494;50.730;-1.932;2023-02-15T06:52:48;101813.93;;;6.37;100.00
49645;BME280;36494;50.730;-1.932;2023-02-15T06:55:13;101816.79;;;6.38;100.00
49645;BME280;36494;50.730;-1.932;2023-02-15T06:57:39;101823.46;;;6.43;100.00
49645;BME280;36494;50.730;-1.932;2023-02-15T07:00:05;101824.29;;;6.41;100.00
49645;BME280;36494;50.730;-1.932;2023-02-15T07:02:29;101828.98;;;6.36;100.00
49645;BME280;36494;50.730;-1.932;2023-02-15T07:04:55;101834.35;;;6.35;100.00
49645;BME280;36494;50.730;-1.932;2023-02-15T07:07:20;101836.47;;;6.36;100.00
49645;BME280;36494;50.730;-1.932;2023-02-15T07:09:46;101846.33;;;6.41;100.00
49645;BME280;36494;50.730;-1.932;2023-02-15T07:12:11;101846.85;;;6.44;100.00
49645;BME280;36494;50.730;-1.932;2023-02-15T07:14:37;101846.29;;;6.47;100.00
49645;BME280;36494;50.730;-1.932;2023-02-15T07:17:02;101847.67;;;6.53;100.00
49645;BME280;36494;50.730;-1.932;2023-02-15T07:19:27;101845.56;;;6.53;100.00
49645;BME280;36494;50.730;-1.932;2023-02-15T07:21:53;101843.42;;;6.56;100.00
49645;BME280;36494;50.730;-1.932;2023-02-15T07:24:18;101842.60;;;6.58;100.00
49645;BME280;36494;50.730;-1.932;2023-02-15T07:26:44;101841.96;;;6.59;100.00
49645;BME280;36494;50.730;-1.932;2023-02-15T07:29:09;101840.72;;;6.58;100.00
49645;BME280;36494;50.730;-1.932;2023-02-15T07:31:35;101840.19;;;6.59;100.00
49645;BME280;36494;50.730;-1.932;2023-02-15T07:34:00;101845.51;;;6.61;100.00
49645;BME280;36494;50.730;-1.932;2023-02-15T07:36:26;101847.25;;;6.59;100.00
49645;BME280;36494;50.730;-1.932;2023-02-15T07:38:52;101846.46;;;6.59;100.00
49645;BME280;36494;50.730;-1.932;2023-02-15T07:41:17;101844.46;;;6.58;100.00
49645;BME280;36494;50.730;-1.932;2023-02-15T07:43:44;101841.00;;;6.59;100.00
49645;BME280;36494;50.730;-1.932;2023-02-15T07:46:10;101841.43;;;6.59;100.00
49645;BME280;36494;50.730;-1.932;2023-02-15T07:48:33;101842.13;;;6.57;100.00
49645;BME280;36494;50.730;-1.932;2023-02-15T07:50:59;101846.99;;;6.58;100.00
49645;BME280;36494;50.730;-1.932;2023-02-15T07:53:24;101854.06;;;6.58;100.00
49645;BME280;36494;50.730;-1.932;2023-02-15T07:55:49;101853.31;;;6.59;100.00
49645;BME280;36494;50.730;-1.932;2023-02-15T07:58:15;101857.48;;;6.57;100.00
49645;BME280;36494;50.730;-1.932;2023-02-15T08:00:40;101858.66;;;6.55;100.00
49645;BME280;36494;50.730;-1.932;2023-02-15T08:03:05;101859.98;;;6.54;100.00
49645;BME280;36494;50.730;-1.932;2023-02-15T08:05:30;101855.78;;;6.50;100.00
49645;BME280;36494;50.730;-1.932;2023-02-15T08:07:56;101854.35;;;6.51;100.00
49645;BME280;36494;50.730;-1.932;2023-02-15T08:10:21;101854.40;;;6.47;100.00
49645;BME280;36494;50.730;-1.932;2023-02-15T08:12:46;101856.78;;;6.44;100.00
49645;BME280;36494;50.730;-1.932;2023-02-15T08:15:12;101859.77;;;6.42;100.00
49645;BME280;36494;50.730;-1.932;2023-02-15T08:17:37;101855.15;;;6.42;100.00
49645;BME280;36494;50.730;-1.932;2023-02-15T08:20:03;101850.60;;;6.48;100.00
49645;BME280;36494;50.730;-1.932;2023-02-15T08:22:28;101852.95;;;6.46;100.00
49645;BME280;36494;50.730;-1.932;2023-02-15T08:24:53;101851.52;;;6.50;100.00
49645;BME280;36494;50.730;-1.932;2023-02-15T08:27:19;101852.20;;;6.52;100.00
49645;BME280;36494;50.730;-1.932;2023-02-15T08:29:44;101848.85;;;6.52;100.00
49645;BME280;36494;50.730;-1.932;2023-02-15T08:32:11;101855.76;;;6.53;100.00
49645;BME280;36494;50.730;-1.932;2023-02-15T08:34:39;101853.42;;;6.58;100.00
49645;BME280;36494;50.730;-1.932;2023-02-15T08:37:01;101855.12;;;6.62;100.00
49645;BME280;36494;50.730;-1.932;2023-02-15T08:39:27;101851.92;;;6.64;100.00
49645;BME280;36494;50.730;-1.932;2023-02-15T08:41:52;101852.12;;;6.66;100.00
49645;BME280;36494;50.730;-1.932;2023-02-15T08:44:18;101856.19;;;6.77;100.00
49645;BME280;36494;50.730;-1.932;2023-02-15T08:46:44;101855.34;;;6.80;100.00
49645;BME280;36494;50.730;-1.932;2023-02-15T08:49:08;101853.99;;;6.82;100.00
49645;BME280;36494;50.730;-1.932;2023-02-15T08:51:35;101847.00;;;6.90;100.00
49645;BME280;36494;50.730;-1.932;2023-02-15T08:54:01;101848.42;;;6.95;100.00
49645;BME280;36494;50.730;-1.932;2023-02-15T08:56:25;101852.67;;;6.97;100.00
49645;BME280;36494;50.730;-1.932;2023-02-15T08:58:49;101851.77;;;7.04;100.00
49645;BME280;36494;50.730;-1.932;2023-02-15T09:01:16;101853.49;;;7.07;100.00
49645;BME280;36494;50.730;-1.932;2023-02-15T09:03:40;101846.46;;;7.10;100.00
49645;BME280;36494;50.730;-1.932;2023-02-15T09:06:06;101845.04;;;7.17;100.00
49645;BME280;36494;50.730;-1.932;2023-02-15T09:08:31;101838.22;;;7.23;100.00
49645;BME280;36494;50.730;-1.932;2023-02-15T09:11:05;101841.24;;;7.34;100.00
49645;BME280;36494;50.730;-1.932;2023-02-15T09:13:22;101841.61;;;7.35;100.00
49645;BME280;36494;50.730;-1.932;2023-02-15T09:15:48;101846.99;;;7.41;100.00
49645;BME280;36494;50.730;-1.932;2023-02-15T09:18:13;101845.38;;;7.44;100.00
49645;BME280;36494;50.730;-1.932;2023-02-15T09:20:38;101850.34;;;7.55;100.00
49645;BME280;36494;50.730;-1.932;2023-02-15T09:23:03;101850.11;;;7.62;100.00
49645;BME280;36494;50.730;-1.932;2023-02-15T09:25:29;101846.20;;;7.72;100.00
49645;BME280;36494;50.730;-1.932;2023-02-15T09:27:54;101844.22;;;7.82;100.00
49645;BME280;36494;50.730;-1.932;2023-02-15T09:30:19;101843.67;;;7.92;100.00
49645;BME280;36494;50.730;-1.932;2023-02-15T09:32:45;101847.71;;;7.96;100.00
49645;BME280;36494;50.730;-1.932;2023-02-15T09:35:11;101849.19;;;8.05;100.00
49645;BME280;36494;50.730;-1.932;2023-02-15T09:37:36;101848.49;;;8.14;100.00
49645;BME280;36494;50.730;-1.932;2023-02-15T09:40:01;101847.96;;;8.24;100.00
49645;BME280;36494;50.730;-1.932;2023-02-15T09:42:43;101841.36;;;8.29;100.00
49645;BME280;36494;50.730;-1.932;2023-02-15T09:45:07;101830.35;;;8.37;100.00
49645;BME280;36494;50.730;-1.932;2023-02-15T09:47:31;101828.06;;;8.44;100.00
49645;BME280;36494;50.730;-1.932;2023-02-15T09:49:49;101833.77;;;8.53;100.00
49645;BME280;36494;50.730;-1.932;2023-02-15T09:52:21;101836.07;;;8.58;100.00
49645;BME280;36494;50.730;-1.932;2023-02-15T09:54:49;101839.73;;;8.68;100.00
49645;BME280;36494;50.730;-1.932;2023-02-15T09:57:05;101836.04;;;8.74;100.00
49645;BME280;36494;50.730;-1.932;2023-02-15T09:59:32;101829.83;;;8.84;100.00
49645;BME280;36494;50.730;-1.932;2023-02-15T10:01:58;101834.95;;;8.90;100.00
49645;BME280;36494;50.730;-1.932;2023-02-15T10:04:29;101831.29;;;8.96;100.00
49645;BME280;36494;50.730;-1.932;2023-02-15T10:06:45;101830.68;;;9.02;100.00
49645;BME280;36494;50.730;-1.932;2023-02-15T10:09:17;101832.37;;;9.09;100.00
49645;BME280;36494;50.730;-1.932;2023-02-15T10:11:45;101827.12;;;9.17;100.00
49645;BME280;36494;50.730;-1.932;2023-02-15T10:14:08;101822.51;;;9.24;100.00
49645;BME280;36494;50.730;-1.932;2023-02-15T10:16:29;101819.92;;;9.33;100.00
49645;BME280;36494;50.730;-1.932;2023-02-15T10:18:55;101821.47;;;9.37;100.00
49645;BME280;36494;50.730;-1.932;2023-02-15T10:21:23;101824.12;;;9.44;100.00
49645;BME280;36494;50.730;-1.932;2023-02-15T10:23:50;101825.50;;;9.51;100.00
49645;BME280;36494;50.730;-1.932;2023-02-15T10:26:12;101825.72;;;9.58;100.00
49645;BME280;36494;50.730;-1.932;2023-02-15T10:28:38;101831.31;;;9.61;100.00
49645;BME280;36494;50.730;-1.932;2023-02-15T10:31:03;101835.95;;;9.71;100.00
49645;BME280;36494;50.730;-1.932;2023-02-15T10:33:34;101839.20;;;9.75;100.00
49645;BME280;36494;50.730;-1.932;2023-02-15T10:35:54;101841.82;;;9.80;100.00
49645;BME280;36494;50.730;-1.932;2023-02-15T10:38:20;101842.04;;;9.88;100.00
49645;BME280;36494;50.730;-1.932;2023-02-15T10:40:46;101844.26;;;9.93;100.00
49645;BME280;36494;50.730;-1.932;2023-02-15T10:43:16;101847.52;;;10.01;100.00
49645;BME280;36494;50.730;-1.932;2023-02-15T10:45:33;101851.04;;;10.07;100.00
49645;BME280;36494;50.730;-1.932;2023-02-15T10:48:04;101851.77;;;10.14;100.00
49645;BME280;36494;50.730;-1.932;2023-02-15T10:50:29;101851.52;;;10.26;100.00
49645;BME280;36494;50.730;-1.932;2023-02-15T10:52:54;101851.37;;;10.35;100.00
49645;BME280;36494;50.730;-1.932;2023-02-15T10:55:16;101844.94;;;10.51;100.00
49645;BME280;36494;50.730;-1.932;2023-02-15T10:57:45;101833.53;;;10.74;100.00
49645;BME280;36494;50.730;-1.932;2023-02-15T11:00:09;101830.63;;;11.02;100.00
49645;BME280;36494;50.730;-1.932;2023-02-15T11:02:40;101829.62;;;11.19;100.00
49645;BME280;36494;50.730;-1.932;2023-02-15T11:04:59;101821.54;;;11.51;100.00
49645;BME280;36494;50.730;-1.932;2023-02-15T11:07:20;101818.10;;;11.78;100.00
49645;BME280;36494;50.730;-1.932;2023-02-15T11:09:46;101817.36;;;12.00;100.00
49645;BME280;36494;50.730;-1.932;2023-02-15T11:12:12;101817.70;;;12.21;100.00
49645;BME280;36494;50.730;-1.932;2023-02-15T11:14:38;101812.88;;;12.22;100.00
49645;BME280;36494;50.730;-1.932;2023-02-15T11:17:05;101808.84;;;12.16;100.00
49645;BME280;36494;50.730;-1.932;2023-02-15T11:19:30;101807.81;;;12.11;100.00
49645;BME280;36494;50.730;-1.932;2023-02-15T11:21:54;101805.25;;;12.31;100.00
49645;BME280;36494;50.730;-1.932;2023-02-15T11:24:18;101805.05;;;12.47;100.00
49645;BME280;36494;50.730;-1.932;2023-02-15T11:26:44;101800.38;;;12.53;100.00
49645;BME280;36494;50.730;-1.932;2023-02-15T11:29:11;101800.65;;;12.90;100.00
49645;BME280;36494;50.730;-1.932;2023-02-15T11:31:40;101800.49;;;13.07;100.00
49645;BME280;36494;50.730;-1.932;2023-02-15T11:34:02;101796.90;;;13.12;100.00
49645;BME280;36494;50.730;-1.932;2023-02-15T11:36:25;101801.85;;;12.84;100.00
49645;BME280;36494;50.730;-1.932;2023-02-15T11:38:52;101805.13;;;13.22;100.00
49645;BME280;36494;50.730;-1.932;2023-02-15T11:41:18;101813.88;;;12.87;100.00
49645;BME280;36494;50.730;-1.932;2023-02-15T11:43:43;101813.59;;;13.29;100.00
49645;BME280;36494;50.730;-1.932;2023-02-15T11:46:05;101820.23;;;13.59;100.00
49645;BME280;36494;50.730;-1.932;2023-02-15T11:48:31;101827.89;;;13.75;100.00
49645;BME280;36494;50.730;-1.932;2023-02-15T11:50:56;101817.50;;;13.71;100.00
49645;BME280;36494;50.730;-1.932;2023-02-15T11:53:22;101817.35;;;13.72;100.00
49645;BME280;36494;50.730;-1.932;2023-02-15T11:55:47;101817.44;;;13.65;100.00
49645;BME280;36494;50.730;-1.932;2023-02-15T11:58:21;101816.29;;;13.82;100.00
49645;BME280;36494;50.730;-1.932;2023-02-15T12:00:39;101811.48;;;13.71;100.00
49645;BME280;36494;50.730;-1.932;2023-02-15T12:03:09;101804.30;;;13.47;100.00
49645;BME280;36494;50.730;-1.932;2023-02-15T12:05:28;101802.70;;;13.70;100.00
49645;BME280;36494;50.730;-1.932;2023-02-15T12:07:57;101802.64;;;13.57;100.00
49645;BME280;36494;50.730;-1.932;2023-02-15T12:10:22;101799.78;;;13.51;100.00
49645;BME280;36494;50.730;-1.932;2023-02-15T12:12:43;101798.89;;;13.50;100.00
49645;BME280;36494;50.730;-1.932;2023-02-15T12:15:10;101801.87;;;13.47;100.00
49645;BME280;36494;50.730;-1.932;2023-02-15T12:17:39;101807.14;;;13.39;100.00
49645;BME280;36494;50.730;-1.932;2023-02-15T12:20:02;101802.89;;;13.37;100.00
49645;BME280;36494;50.730;-1.932;2023-02-15T12:22:28;101807.71;;;13.40;100.00
49645;BME280;36494;50.730;-1.932;2023-02-15T12:24:53;101809.38;;;13.24;100.00
49645;BME280;36494;50.730;-1.932;2023-02-15T12:27:18;101814.72;;;13.34;100.00